Rumford, Rhode Island
Current Conditions -  °F | °C
As of 4:55 PM on Saturday 25 Oct 2014 (Local Time) from KSFZ Reporting Station
Clear Clear  
Wind Chill: 63°   Ceiling: Unl
Heat Index: 63°   Visibility: 10mi
Dew Point: 37°   Wind: 5mph
Humidity: 39%   Direction: 240°WSW
Pressure: 29.6"   Gusts: NA
Location:  41.85°N, 71.35°W
Report Text: KSFZ 252055Z 24004KT 10SM CLR 17/03 A2960 RMK AO1 57020
Loading
Personal Weather Stations






























Interactive Weather Map
Tropical Storm Tracking
New forecast layout! Learn more

10-Day Weather Forecast

Advertisements
Track Severe Weather on mobile